Time;durP1;ratioP1;P1;durP2;ratioP2;P2;SDS_P1;SDS_P2;PMS_P1;PMS_P2;Temp;Humidity;BMP_temperature;BMP_pressure;BME280_temperature;BME280_humidity;BME280_pressure;Samples;Min_cycle;Max_cycle;Signal;HPM_P1;HPM_P2
2021/05/20 00:01:42;;;;;;;2.63;1.58;;;10.20;77.10;;;;;;5028038;28;20533;-66
2021/05/20 00:04:10;;;;;;;1.67;1.50;;;10.20;77.00;;;;;;5030028;28;20033;-65
2021/05/20 00:06:40;;;;;;;2.65;1.58;;;10.20;77.00;;;;;;5030044;28;20664;-66
2021/05/20 00:09:10;;;;;;;3.50;1.55;;;10.20;77.10;;;;;;5032148;28;20060;-67
2021/05/20 00:11:36;;;;;;;1.75;1.65;;;10.20;77.00;;;;;;5031299;28;20037;-66
2021/05/20 00:14:04;;;;;;;3.47;1.27;;;10.20;77.80;;;;;;5031971;28;20043;-65
2021/05/20 00:16:30;;;;;;;1.55;1.42;;;10.20;77.00;;;;;;5033906;28;20037;-65
2021/05/20 00:18:58;;;;;;;1.70;1.60;;;10.20;76.90;;;;;;5034696;28;20031;-66
2021/05/20 00:21:26;;;;;;;1.85;1.52;;;10.20;76.80;;;;;;5033328;28;20083;-66
2021/05/20 00:23:54;;;;;;;2.45;1.67;;;10.10;76.90;;;;;;5033952;28;20439;-64
2021/05/20 00:26:25;;;;;;;2.72;1.70;;;10.20;76.90;;;;;;5032816;28;20033;-65
2021/05/20 00:28:57;;;;;;;2.85;1.33;;;10.20;77.00;;;;;;5027174;28;20034;-67
2021/05/20 00:31:28;;;;;;;1.38;1.27;;;10.20;76.80;;;;;;5027178;28;20068;-66
2021/05/20 00:33:58;;;;;;;1.30;1.20;;;10.20;76.60;;;;;;5033100;28;20029;-65
2021/05/20 00:36:26;;;;;;;5.38;1.50;;;10.20;76.60;;;;;;5034042;28;20125;-65
2021/05/20 00:38:56;;;;;;;1.42;1.33;;;10.20;76.50;;;;;;5035636;28;20444;-66
2021/05/20 00:41:27;;;;;;;2.35;1.50;;;10.20;76.50;;;;;;5033129;28;20049;-65
2021/05/20 00:43:55;;;;;;;1.85;1.60;;;10.20;76.50;;;;;;5030488;28;20037;-65
2021/05/20 00:46:23;;;;;;;1.70;1.60;;;10.10;76.40;;;;;;5026472;28;20049;-66
2021/05/20 00:48:53;;;;;;;1.85;1.60;;;10.10;76.40;;;;;;5033036;28;20108;-65
2021/05/20 00:51:21;;;;;;;1.92;1.70;;;10.10;76.60;;;;;;5032412;28;20996;-64
2021/05/20 00:53:52;;;;;;;1.83;1.67;;;10.10;76.50;;;;;;5033249;28;20515;-63
2021/05/20 00:56:25;;;;;;;2.00;1.75;;;10.00;76.60;;;;;;5032086;28;20037;-65
2021/05/20 00:58:55;;;;;;;1.88;1.77;;;10.00;76.60;;;;;;5028058;28;20034;-65
2021/05/20 01:01:23;;;;;;;2.10;1.90;;;10.00;76.70;;;;;;5028806;28;20025;-66
2021/05/20 01:03:49;;;;;;;1.95;1.77;;;10.00;76.60;;;;;;5031109;28;20584;-65
2021/05/20 01:06:21;;;;;;;2.63;2.00;;;10.00;76.60;;;;;;5034071;28;20117;-66
2021/05/20 01:08:50;;;;;;;2.10;1.90;;;10.00;76.60;;;;;;5034646;28;20025;-66
2021/05/20 01:11:15;;;;;;;2.03;1.92;;;10.00;76.60;;;;;;5028752;28;20050;-65
2021/05/20 01:13:44;;;;;;;2.25;2.08;;;9.90;76.70;;;;;;5027180;28;20056;-65
2021/05/20 01:16:12;;;;;;;2.33;2.13;;;10.00;76.80;;;;;;5028616;28;20041;-66
2021/05/20 01:18:43;;;;;;;1.92;1.83;;;9.90;76.80;;;;;;5028064;28;20104;-66
2021/05/20 01:21:13;;;;;;;3.20;2.30;;;9.90;76.80;;;;;;5031677;28;20124;-66
2021/05/20 01:23:41;;;;;;;3.08;2.17;;;9.90;76.70;;;;;;5030571;28;20029;-66
2021/05/20 01:26:09;;;;;;;2.00;1.90;;;9.90;76.80;;;;;;5026176;28;20043;-65
2021/05/20 01:28:40;;;;;;;3.53;2.20;;;9.90;76.90;;;;;;5026823;28;20036;-67
2021/05/20 01:31:09;;;;;;;2.30;2.10;;;9.90;77.10;;;;;;5033462;28;20120;-65
2021/05/20 01:33:37;;;;;;;2.25;2.05;;;9.80;77.00;;;;;;5031444;28;20026;-66
2021/05/20 01:36:05;;;;;;;2.03;1.92;;;9.80;76.90;;;;;;5031273;28;20029;-66
2021/05/20 01:41:08;;;;;;;;;;;9.80;77.00;;;;;;5032484;28;20113;-66
2021/05/20 01:43:39;;;;;;;2.22;1.88;;;9.80;77.30;;;;;;5029247;28;19927;-65
2021/05/20 01:46:06;;;;;;;2.15;1.70;;;9.80;76.60;;;;;;5030267;28;20580;-67
2021/05/20 01:48:44;;;;;;;1.98;1.77;;;9.80;76.80;;;;;;5034234;28;20053;-65
2021/05/20 01:51:19;;;;;;;2.05;1.88;;;9.70;77.20;;;;;;5032026;28;20034;-64
2021/05/20 01:53:53;;;;;;;2.30;1.95;;;9.70;77.00;;;;;;5024101;28;20037;-65
2021/05/20 01:56:24;;;;;;;1.77;1.63;;;9.70;77.10;;;;;;5029344;28;21878;-66
2021/05/20 01:58:52;;;;;;;2.10;2.00;;;9.70;77.00;;;;;;5028986;28;20045;-66
2021/05/20 02:01:20;;;;;;;2.45;1.92;;;9.70;77.00;;;;;;5028777;28;20044;-65
2021/05/20 02:03:50;;;;;;;2.08;1.88;;;9.70;77.90;;;;;;5027454;28;20546;-65
2021/05/20 02:06:23;;;;;;;2.33;2.10;;;9.70;77.00;;;;;;5028366;28;20049;-66
2021/05/20 02:08:51;;;;;;;2.20;2.00;;;9.70;77.00;;;;;;5033078;28;20547;-66
2021/05/20 02:11:19;;;;;;;2.00;1.90;;;9.70;76.80;;;;;;5032347;28;20045;-65
2021/05/20 02:13:49;;;;;;;2.30;2.20;;;9.70;76.80;;;;;;5029526;28;20076;-66
2021/05/20 02:16:17;;;;;;;2.28;2.08;;;9.70;76.90;;;;;;5031116;28;20029;-66
2021/05/20 02:18:48;;;;;;;2.17;1.92;;;9.70;77.00;;;;;;5034103;28;20044;-66
2021/05/20 02:21:13;;;;;;;2.20;2.00;;;9.60;77.00;;;;;;5032419;28;20116;-65
2021/05/20 02:23:41;;;;;;;3.38;1.85;;;9.60;77.10;;;;;;5037049;28;20113;-66
2021/05/20 02:26:14;;;;;;;2.70;2.30;;;9.60;77.20;;;;;;5035138;28;20120;-65
2021/05/20 02:28:40;;;;;;;3.13;2.05;;;9.60;77.30;;;;;;5033163;28;20048;-66
2021/05/20 02:31:08;;;;;;;2.40;2.20;;;9.60;77.30;;;;;;5028218;28;20583;-66
2021/05/20 02:33:38;;;;;;;2.40;2.20;;;9.60;77.70;;;;;;5029570;28;20033;-67
2021/05/20 02:36:07;;;;;;;2.65;2.15;;;9.60;77.30;;;;;;5028702;28;20579;-65
2021/05/20 02:38:39;;;;;;;2.45;2.25;;;9.60;77.30;;;;;;5033896;28;20432;-66
2021/05/20 02:41:07;;;;;;;3.63;2.20;;;9.60;77.30;;;;;;5036479;28;20029;-65
2021/05/20 02:43:34;;;;;;;3.70;2.03;;;9.60;77.30;;;;;;5035696;28;20033;-66
2021/05/20 02:46:03;;;;;;;2.50;2.25;;;9.60;77.40;;;;;;5032171;28;20077;-66
2021/05/20 02:48:33;;;;;;;3.13;2.55;;;9.60;77.40;;;;;;5038005;28;20029;-65
2021/05/20 02:51:01;;;;;;;5.95;2.85;;;9.60;77.50;;;;;;5032164;28;22167;-66
2021/05/20 02:53:31;;;;;;;2.88;2.58;;;9.50;77.30;;;;;;5033342;28;20599;-65
2021/05/20 02:56:01;;;;;;;3.30;3.00;;;9.50;77.50;;;;;;5034790;28;20041;-67
2021/05/20 02:58:31;;;;;;;3.45;2.83;;;9.50;77.50;;;;;;5031259;28;20172;-66
2021/05/20 03:01:02;;;;;;;3.55;3.08;;;9.50;77.60;;;;;;5027583;28;20037;-66
2021/05/20 03:03:32;;;;;;;4.00;3.38;;;9.40;77.50;;;;;;5030397;28;20034;-65
2021/05/20 03:05:58;;;;;;;3.75;3.45;;;9.40;77.70;;;;;;5032671;28;20037;-66
2021/05/20 03:08:24;;;;;;;5.60;3.42;;;9.40;77.60;;;;;;5032244;28;20088;-64
2021/05/20 03:10:57;;;;;;;3.97;3.58;;;9.40;77.70;;;;;;5030419;28;20445;-65
2021/05/20 03:13:25;;;;;;;4.82;3.83;;;9.40;77.80;;;;;;5033852;28;20042;-66
2021/05/20 03:15:55;;;;;;;6.20;4.00;;;9.50;77.90;;;;;;5032999;28;20124;-65
2021/05/20 03:18:28;;;;;;;4.68;3.90;;;9.50;77.90;;;;;;5035048;28;20037;-66
2021/05/20 03:20:58;;;;;;;4.40;4.00;;;9.50;77.80;;;;;;5035447;28;20042;-66
2021/05/20 03:23:31;;;;;;;5.72;4.18;;;9.50;77.70;;;;;;5034711;28;20034;-65
2021/05/20 03:26:01;;;;;;;48.00;25.00;;;9.50;77.70;;;;;;5035457;28;20522;-65
2021/05/20 03:28:29;;;;;;;11.73;7.72;;;9.50;77.70;;;;;;5032521;28;20046;-65
2021/05/20 03:30:59;;;;;;;19.73;12.40;;;9.50;77.60;;;;;;5032458;28;20044;-65
2021/05/20 03:33:27;;;;;;;7.30;5.88;;;9.50;77.60;;;;;;5030365;28;20044;-65
2021/05/20 03:35:57;;;;;;;9.27;7.93;;;9.50;77.50;;;;;;5033564;28;20032;-65
2021/05/20 03:38:25;;;;;;;5.80;5.22;;;9.40;77.30;;;;;;5026054;28;20033;-65
2021/05/20 03:40:51;;;;;;;6.00;5.20;;;9.40;77.30;;;;;;5031715;28;20058;-65
2021/05/20 03:43:19;;;;;;;6.95;5.95;;;9.40;77.30;;;;;;5030727;28;20186;-66
2021/05/20 03:45:52;;;;;;;13.70;11.00;;;9.40;77.40;;;;;;5026409;28;20037;-65
2021/05/20 03:48:22;;;;;;;6.28;4.85;;;9.40;77.50;;;;;;5027244;28;20045;-65
2021/05/20 03:50:55;;;;;;;6.05;5.05;;;9.40;77.50;;;;;;5028052;28;20029;-65
2021/05/20 03:53:25;;;;;;;7.93;6.60;;;9.40;77.50;;;;;;5025746;28;20037;-66
2021/05/20 03:55:50;;;;;;;15.35;12.15;;;9.40;77.60;;;;;;5030667;28;20042;-66
2021/05/20 03:58:20;;;;;;;6.07;5.40;;;9.40;77.60;;;;;;5031110;28;20134;-64
2021/05/20 04:00:48;;;;;;;8.40;7.15;;;9.40;77.70;;;;;;5026481;28;20053;-64
2021/05/20 04:03:37;;;;;;;8.65;6.47;;;9.40;78.60;;;;;;5026231;28;20052;-65
2021/05/20 04:06:06;;;;;;;9.55;6.93;;;9.40;78.20;;;;;;5033874;28;20059;-65
2021/05/20 04:08:40;;;;;;;5.35;4.85;;;9.50;77.80;;;;;;5025992;28;20034;-64
2021/05/20 04:11:10;;;;;;;7.57;6.38;;;9.40;77.90;;;;;;5021610;28;20072;-65
2021/05/20 04:13:42;;;;;;;12.95;11.15;;;9.50;77.80;;;;;;5030789;28;20374;-65
2021/05/20 04:16:11;;;;;;;8.15;7.03;;;9.40;77.90;;;;;;5032402;28;20034;-66
2021/05/20 04:18:40;;;;;;;7.93;6.60;;;9.40;78.00;;;;;;5032684;28;20821;-65
2021/05/20 04:21:10;;;;;;;5.47;4.95;;;9.50;78.20;;;;;;5035117;28;20025;-66
2021/05/20 04:23:46;;;;;;;4.40;4.00;;;9.50;78.40;;;;;;5033843;28;20034;-65
2021/05/20 04:26:12;;;;;;;5.00;4.00;;;9.50;78.40;;;;;;5031172;28;20626;-65
2021/05/20 04:28:42;;;;;;;5.15;4.65;;;9.60;78.30;;;;;;5027034;28;20500;-66
2021/05/20 04:31:10;;;;;;;4.78;3.60;;;9.60;78.40;;;;;;5032172;28;20079;-65
2021/05/20 04:33:40;;;;;;;4.95;4.18;;;9.60;78.40;;;;;;5030441;28;20097;-67
2021/05/20 04:36:13;;;;;;;4.03;3.45;;;9.60;78.40;;;;;;5030316;28;20022;-66
2021/05/20 04:38:44;;;;;;;5.40;3.80;;;9.60;78.50;;;;;;5036546;28;20030;-64
2021/05/20 04:41:12;;;;;;;6.72;4.32;;;9.60;78.40;;;;;;5033582;28;20683;-66
2021/05/20 04:43:40;;;;;;;3.85;3.55;;;9.70;78.60;;;;;;5035575;28;20500;-66
2021/05/20 04:46:08;;;;;;;4.95;4.45;;;9.70;78.40;;;;;;5033328;28;20041;-67
2021/05/20 04:48:36;;;;;;;3.92;3.45;;;9.70;78.50;;;;;;5033657;28;20037;-66
2021/05/20 04:51:03;;;;;;;3.80;3.10;;;9.70;78.40;;;;;;5034092;28;20029;-66
2021/05/20 04:53:31;;;;;;;3.40;3.10;;;9.80;78.40;;;;;;5034897;28;20037;-66
2021/05/20 04:56:02;;;;;;;31.08;20.25;;;9.80;78.40;;;;;;5035779;28;20467;-66
2021/05/20 04:58:30;;;;;;;6.38;5.55;;;9.90;78.40;;;;;;5040476;28;20037;-65
2021/05/20 05:00:58;;;;;;;4.95;4.55;;;9.90;78.50;;;;;;5037883;28;20512;-65
2021/05/20 05:03:28;;;;;;;3.67;3.38;;;9.90;78.50;;;;;;5034289;28;20124;-65
2021/05/20 05:05:54;;;;;;;3.92;3.13;;;9.90;78.60;;;;;;5031920;28;20032;-66
2021/05/20 05:08:25;;;;;;;3.42;3.10;;;9.90;78.60;;;;;;5035434;28;20344;-66
2021/05/20 05:10:55;;;;;;;4.72;4.35;;;10.00;78.60;;;;;;5033094;28;20038;-66
2021/05/20 05:13:28;;;;;;;3.45;3.15;;;10.00;78.60;;;;;;5032075;28;20029;-66
2021/05/20 05:15:55;;;;;;;4.63;3.50;;;10.10;78.80;;;;;;5033363;28;20029;-66
2021/05/20 05:18:21;;;;;;;3.38;3.08;;;10.10;78.60;;;;;;5036943;28;20356;-66
2021/05/20 05:20:51;;;;;;;3.22;3.03;;;10.10;78.60;;;;;;5035256;28;20030;-66
2021/05/20 05:23:17;;;;;;;4.00;3.60;;;10.20;78.60;;;;;;5033514;28;20736;-66
2021/05/20 05:25:45;;;;;;;8.45;7.03;;;10.30;78.60;;;;;;5035422;28;20082;-66
2021/05/20 05:28:15;;;;;;;3.47;3.17;;;10.30;78.40;;;;;;5035272;28;20025;-67
2021/05/20 05:30:48;;;;;;;3.47;3.00;;;10.30;78.30;;;;;;5035944;28;20044;-66
2021/05/20 05:33:16;;;;;;;3.72;3.35;;;10.40;78.40;;;;;;5035056;28;20121;-66
2021/05/20 05:35:46;;;;;;;3.30;2.90;;;10.40;78.20;;;;;;5036569;28;20049;-66
2021/05/20 05:38:16;;;;;;;3.63;3.33;;;10.40;78.30;;;;;;5033646;28;20049;-66
2021/05/20 05:40:46;;;;;;;3.60;3.30;;;10.60;78.40;;;;;;5033668;28;20042;-66
2021/05/20 05:43:14;;;;;;;5.93;3.63;;;10.60;78.30;;;;;;5035401;28;20094;-66
2021/05/20 05:45:47;;;;;;;4.03;3.28;;;10.60;78.20;;;;;;5037528;28;20128;-66
2021/05/20 05:48:17;;;;;;;3.55;3.25;;;10.70;78.00;;;;;;5030128;28;20037;-66
2021/05/20 05:50:47;;;;;;;3.85;3.20;;;10.80;77.90;;;;;;5036025;28;20492;-66
2021/05/20 05:53:15;;;;;;;3.50;2.70;;;10.80;77.70;;;;;;5035102;28;20069;-66
2021/05/20 05:55:43;;;;;;;2.50;2.30;;;10.90;77.60;;;;;;5040222;28;20064;-66
2021/05/20 05:58:13;;;;;;;3.40;2.25;;;10.90;77.20;;;;;;5040498;28;20055;-66
2021/05/20 06:00:46;;;;;;;2.00;1.85;;;10.90;76.80;;;;;;5034159;28;20045;-66
2021/05/20 06:03:11;;;;;;;2.28;2.05;;;10.90;76.80;;;;;;5035193;28;20033;-66
2021/05/20 06:05:44;;;;;;;2.13;1.92;;;11.00;76.50;;;;;;5036912;28;20087;-66
2021/05/20 06:08:12;;;;;;;2.30;2.05;;;11.00;76.30;;;;;;5039531;28;20496;-66
2021/05/20 06:10:38;;;;;;;2.08;1.90;;;11.00;76.20;;;;;;5035850;28;20060;-66
2021/05/20 06:13:10;;;;;;;2.03;1.83;;;11.00;76.30;;;;;;5038437;28;20070;-65
2021/05/20 06:15:38;;;;;;;1.77;1.67;;;11.10;76.40;;;;;;5036527;28;20033;-66
2021/05/20 06:18:06;;;;;;;2.15;1.63;;;11.10;76.30;;;;;;5038676;28;20030;-65
2021/05/20 06:20:35;;;;;;;2.47;1.17;;;11.20;76.30;;;;;;5038583;28;20140;-66
2021/05/20 06:23:00;;;;;;;1.45;1.15;;;11.20;76.10;;;;;;5038102;28;20107;-66
2021/05/20 06:25:29;;;;;;;2.00;1.80;;;11.30;76.00;;;;;;5038903;28;20444;-66
2021/05/20 06:27:54;;;;;;;0.70;0.70;;;11.30;75.70;;;;;;5037815;28;20492;-66
2021/05/20 06:30:22;;;;;;;1.00;1.00;;;11.40;75.40;;;;;;5036870;28;20041;-65
2021/05/20 06:32:50;;;;;;;1.95;1.55;;;11.40;74.70;;;;;;5036449;28;20038;-66
2021/05/20 06:35:20;;;;;;;1.27;1.17;;;11.40;74.60;;;;;;5039551;28;20055;-66
2021/05/20 06:37:51;;;;;;;1.00;1.00;;;11.50;74.70;;;;;;5038881;28;20057;-66
2021/05/20 06:40:19;;;;;;;2.80;1.10;;;11.50;74.40;;;;;;5035701;28;20037;-65
2021/05/20 06:42:49;;;;;;;1.13;1.08;;;11.50;74.40;;;;;;5036752;28;20042;-66
2021/05/20 06:45:15;;;;;;;1.00;1.00;;;11.60;75.30;;;;;;5034705;28;20041;-66
2021/05/20 06:47:45;;;;;;;3.83;1.10;;;11.60;74.60;;;;;;5038456;28;20037;-67
2021/05/20 06:50:11;;;;;;;0.70;0.70;;;11.70;74.50;;;;;;5037397;28;20025;-65
2021/05/20 06:52:41;;;;;;;16.63;2.03;;;11.80;74.20;;;;;;5039008;28;20048;-67
2021/05/20 06:55:12;;;;;;;5.10;0.80;;;11.80;73.50;;;;;;5034361;28;20132;-66
2021/05/20 07:00:26;;;;;;;4.40;1.05;;;11.90;73.10;;;;;;5035322;28;20040;-66
2021/05/20 07:02:54;;;;;;;1.15;0.90;;;11.90;73.20;;;;;;5024352;28;20501;-66
2021/05/20 07:05:22;;;;;;;1.23;1.13;;;11.90;72.80;;;;;;5035388;28;20046;-67
2021/05/20 07:07:50;;;;;;;1.73;1.33;;;11.90;72.60;;;;;;5037467;28;20033;-67
2021/05/20 07:10:16;;;;;;;6.68;2.00;;;12.00;72.50;;;;;;5035147;28;20472;-66
2021/05/20 07:12:49;;;;;;;2.17;1.50;;;12.00;72.60;;;;;;5035062;28;20033;-66
2021/05/20 07:15:19;;;;;;;0.90;0.75;;;12.00;72.60;;;;;;5036135;28;20033;-66
2021/05/20 07:17:45;;;;;;;0.40;0.40;;;12.10;72.10;;;;;;5037239;28;20493;-66
2021/05/20 07:20:13;;;;;;;1.95;1.45;;;12.10;71.90;;;;;;5035618;28;20048;-66
2021/05/20 07:22:41;;;;;;;0.38;0.30;;;12.20;71.70;;;;;;5038354;28;20029;-66
2021/05/20 07:25:12;;;;;;;0.30;0.30;;;12.20;71.00;;;;;;5033231;28;20044;-67
2021/05/20 07:27:40;;;;;;;1.60;0.60;;;12.30;70.60;;;;;;5037423;28;20072;-65
2021/05/20 07:30:09;;;;;;;1.48;0.38;;;12.30;70.40;;;;;;5036404;28;20033;-66
2021/05/20 07:32:37;;;;;;;1.75;1.33;;;12.30;70.20;;;;;;5037218;28;20052;-67
2021/05/20 07:35:05;;;;;;;2.35;0.60;;;12.30;70.50;;;;;;5033262;28;20063;-66
2021/05/20 07:37:36;;;;;;;0.95;0.40;;;12.40;70.00;;;;;;5035687;28;20053;-66
2021/05/20 07:40:05;;;;;;;2.35;0.40;;;12.40;70.10;;;;;;5035131;28;20035;-67
2021/05/20 07:42:31;;;;;;;1.15;0.40;;;12.50;70.00;;;;;;5037160;28;20033;-65
2021/05/20 07:44:58;;;;;;;0.50;0.30;;;12.50;69.90;;;;;;5031791;28;20099;-66
2021/05/20 07:47:26;;;;;;;1.48;0.45;;;12.60;70.00;;;;;;5039314;28;20029;-67
2021/05/20 07:49:54;;;;;;;0.32;0.20;;;12.60;69.60;;;;;;5038047;28;20047;-66
2021/05/20 07:52:25;;;;;;;0.63;0.13;;;12.70;68.60;;;;;;5036306;28;20030;-67
2021/05/20 07:54:54;;;;;;;0.22;0.20;;;12.70;68.20;;;;;;5032836;28;20033;-67
2021/05/20 07:57:24;;;;;;;0.70;0.32;;;12.70;68.20;;;;;;5037207;28;20079;-66
2021/05/20 07:59:52;;;;;;;0.80;0.55;;;12.70;68.80;;;;;;5037144;28;20111;-66
2021/05/20 08:03:14;;;;;;;0.90;0.50;;;12.80;69.30;;;;;;5033964;28;20098;-66
2021/05/20 08:05:10;;;;;;;0.75;0.40;;;12.80;69.20;;;;;;5024503;28;20071;-67
2021/05/20 08:07:49;;;;;;;1.27;0.20;;;12.90;69.00;;;;;;5039637;28;20120;-67
2021/05/20 08:12:45;;;;;;;0.35;0.30;;;13.00;68.70;;;;;;5032787;28;20080;-67
2021/05/20 08:15:11;;;;;;;1.40;0.57;;;13.00;68.60;;;;;;5036254;28;20816;-67
2021/05/20 08:17:40;;;;;;;0.30;0.28;;;13.10;68.80;;;;;;5038294;28;20124;-67
2021/05/20 08:20:11;;;;;;;0.38;0.28;;;13.20;68.30;;;;;;5036137;28;20036;-66
2021/05/20 08:22:41;;;;;;;0.55;0.30;;;13.30;67.90;;;;;;5034092;28;20033;-66
2021/05/20 08:25:11;;;;;;;0.30;0.20;;;13.30;67.10;;;;;;5036488;28;20482;-67
2021/05/20 08:27:39;;;;;;;0.10;0.10;;;13.40;67.20;;;;;;5035940;28;20401;-67
2021/05/20 08:30:12;;;;;;;0.55;0.10;;;13.60;67.40;;;;;;5037647;28;20415;-66
2021/05/20 08:32:40;;;;;;;0.73;0.20;;;13.60;67.40;;;;;;5035493;28;20030;-67
2021/05/20 08:35:09;;;;;;;0.30;0.20;;;13.80;66.20;;;;;;5034994;28;20052;-67
2021/05/20 08:37:38;;;;;;;0.65;0.60;;;13.80;65.70;;;;;;5035102;28;20033;-67
2021/05/20 08:40:08;;;;;;;0.88;0.50;;;13.90;65.50;;;;;;5037048;28;20513;-67
2021/05/20 08:42:39;;;;;;;0.90;0.55;;;13.90;65.90;;;;;;5032225;28;20036;-66
2021/05/20 08:45:14;;;;;;;0.50;0.20;;;14.00;65.70;;;;;;5035261;28;20033;-67
2021/05/20 08:47:43;;;;;;;0.90;0.70;;;14.00;64.30;;;;;;5034568;28;20037;-67
2021/05/20 08:50:12;;;;;;;0.50;0.50;;;14.00;64.80;;;;;;5035089;28;20029;-67
2021/05/20 08:52:41;;;;;;;0.50;0.20;;;14.00;65.30;;;;;;5032396;28;20044;-66
2021/05/20 08:55:19;;;;;;;0.30;0.17;;;14.10;65.00;;;;;;5031208;28;20569;-67
2021/05/20 08:57:45;;;;;;;0.10;0.10;;;14.20;65.00;;;;;;5033896;28;20033;-67
2021/05/20 09:00:15;;;;;;;0.10;0.10;;;14.30;65.10;;;;;;5033262;28;20052;-67
2021/05/20 09:02:43;;;;;;;0.80;0.10;;;14.40;64.40;;;;;;5032686;28;20397;-67
2021/05/20 09:05:10;;;;;;;0.15;0.15;;;14.50;64.70;;;;;;5034232;28;20061;-67
2021/05/20 09:07:42;;;;;;;0.20;0.20;;;14.60;63.60;;;;;;5036282;28;20025;-67
2021/05/20 09:10:16;;;;;;;0.60;0.20;;;14.70;62.70;;;;;;5033931;28;20025;-67
2021/05/20 09:12:45;;;;;;;0.47;0.10;;;14.70;59.70;;;;;;5029095;28;20041;-67
2021/05/20 09:15:23;;;;;;;0.65;0.40;;;14.70;61.00;;;;;;5041025;28;20532;-66
2021/05/20 09:17:52;;;;;;;1.80;0.43;;;14.60;61.20;;;;;;5044072;28;20029;-64
2021/05/20 09:20:21;;;;;;;0.63;0.20;;;14.40;61.80;;;;;;5035199;28;20175;-65
2021/05/20 09:23:02;;;;;;;1.30;0.22;;;14.20;62.80;;;;;;5032074;28;20049;-65
2021/05/20 09:25:35;;;;;;;0.35;0.30;;;14.00;62.70;;;;;;5032620;28;20079;-65
2021/05/20 09:28:03;;;;;;;0.45;0.30;;;13.80;64.00;;;;;;5038745;28;20037;-66
2021/05/20 09:30:41;;;;;;;0.70;0.20;;;13.60;65.70;;;;;;5039036;28;20492;-64
2021/05/20 09:33:11;;;;;;;0.10;0.10;;;13.40;65.50;;;;;;5036054;28;20554;-65
2021/05/20 09:35:50;;;;;;;0.20;0.20;;;13.20;66.10;;;;;;5039533;28;20306;-65
2021/05/20 09:38:24;;;;;;;0.30;0.20;;;13.00;66.70;;;;;;5038806;28;20068;-65
2021/05/20 09:41:03;;;;;;;0.93;0.10;;;12.90;67.20;;;;;;5039855;28;20069;-66
2021/05/20 09:43:35;;;;;;;0.10;0.10;;;12.80;68.50;;;;;;5037784;28;20034;-66
2021/05/20 09:46:18;;;;;;;0.55;0.30;;;12.70;67.30;;;;;;5037362;28;20037;-65
2021/05/20 09:48:50;;;;;;;0.10;0.10;;;12.70;68.30;;;;;;5036601;28;20037;-66
2021/05/20 09:51:27;;;;;;;0.77;0.20;;;12.70;67.70;;;;;;5038269;28;20037;-66
2021/05/20 09:53:53;;;;;;;0.30;0.20;;;12.70;69.00;;;;;;5037873;28;20033;-66
2021/05/20 09:56:41;;;;;;;0.10;0.10;;;12.70;69.20;;;;;;5038708;28;20500;-66
2021/05/20 09:59:15;;;;;;;0.30;0.20;;;12.80;70.00;;;;;;5034444;28;20037;-66
2021/05/20 10:01:45;;;;;;;0.40;0.40;;;12.90;70.50;;;;;;5036344;28;20030;-64
2021/05/20 10:04:29;;;;;;;1.65;1.55;;;13.00;71.00;;;;;;5047707;28;20514;-66
2021/05/20 10:07:00;;;;;;;0.60;0.32;;;13.20;72.10;;;;;;5037903;28;20030;-66
2021/05/20 10:09:29;;;;;;;0.82;0.80;;;13.30;69.90;;;;;;5038211;28;20396;-65
2021/05/20 10:12:02;;;;;;;0.60;0.30;;;13.40;69.30;;;;;;5032857;28;20108;-67
2021/05/20 10:14:33;;;;;;;0.70;0.70;;;13.50;69.70;;;;;;5032539;28;20048;-65
2021/05/20 10:17:06;;;;;;;0.73;0.73;;;13.50;70.10;;;;;;5039165;28;20033;-66
2021/05/20 10:19:32;;;;;;;0.17;0.10;;;13.50;69.70;;;;;;5038657;28;20033;-66
2021/05/20 10:22:01;;;;;;;0.20;0.10;;;13.60;68.00;;;;;;5043016;28;20044;-66
2021/05/20 10:24:31;;;;;;;1.13;1.02;;;13.60;67.80;;;;;;5038794;28;20038;-67
2021/05/20 10:26:59;;;;;;;2.17;2.00;;;13.60;68.10;;;;;;5045371;28;20033;-66
2021/05/20 10:29:27;;;;;;;1.00;1.00;;;13.70;67.90;;;;;;5035300;28;20505;-66
2021/05/20 10:31:57;;;;;;;0.70;0.70;;;13.80;68.50;;;;;;5027075;28;20033;-67
2021/05/20 10:34:25;;;;;;;0.50;0.50;;;13.90;68.10;;;;;;5027285;28;20060;-66
2021/05/20 10:37:05;;;;;;;0.95;0.90;;;14.00;67.40;;;;;;5030051;28;20045;-66
2021/05/20 10:39:48;;;;;;;0.10;0.10;;;14.20;64.50;;;;;;5033870;28;20025;-66
2021/05/20 10:42:35;;;;;;;1.15;0.70;;;14.30;65.50;;;;;;5037325;28;20037;-67
2021/05/20 10:45:25;;;;;;;1.00;0.60;;;14.40;64.40;;;;;;5035247;28;20032;-67
2021/05/20 10:48:07;;;;;;;2.53;0.90;;;14.50;63.10;;;;;;5040057;28;20030;-66
2021/05/20 10:50:54;;;;;;;0.63;0.63;;;14.60;63.70;;;;;;5038543;28;20033;-65
2021/05/20 10:53:38;;;;;;;0.63;0.60;;;14.50;63.60;;;;;;5036169;28;20030;-67
2021/05/20 10:56:25;;;;;;;0.35;0.30;;;14.50;63.40;;;;;;5037494;28;20509;-67
2021/05/20 10:58:53;;;;;;;0.50;0.50;;;14.40;63.80;;;;;;5038217;28;20040;-66
2021/05/20 11:01:30;;;;;;;0.82;0.60;;;14.40;64.10;;;;;;5033369;28;20053;-64
2021/05/20 11:04:02;;;;;;;0.95;0.60;;;14.30;64.10;;;;;;5038846;28;20037;-66
2021/05/20 11:06:46;;;;;;;0.30;0.20;;;14.40;65.10;;;;;;5039726;28;20041;-66
2021/05/20 11:09:17;;;;;;;0.90;0.10;;;14.30;66.40;;;;;;5041373;28;20567;-67
2021/05/20 11:11:46;;;;;;;0.60;0.15;;;14.40;66.50;;;;;;5032989;28;20041;-66
2021/05/20 11:14:14;;;;;;;1.48;0.40;;;14.50;67.10;;;;;;5038599;28;20080;-67
2021/05/20 11:16:41;;;;;;;0.32;0.25;;;14.60;67.60;;;;;;5036360;28;20033;-67
2021/05/20 11:19:26;;;;;;;0.35;0.20;;;14.60;67.10;;;;;;5038375;28;20029;-67
2021/05/20 11:22:01;;;;;;;0.25;0.25;;;14.70;67.10;;;;;;5036288;28;20029;-66
2021/05/20 11:24:30;;;;;;;0.85;0.20;;;14.90;66.10;;;;;;5036342;28;20435;-66
2021/05/20 11:27:00;;;;;;;1.48;0.20;;;15.00;66.70;;;;;;5039084;28;20036;-66
2021/05/20 11:29:34;;;;;;;0.30;0.30;;;15.10;67.40;;;;;;5038482;28;20154;-67
2021/05/20 11:35:34;;;;;;;0.10;0.10;;;15.30;64.60;;;;;;5025724;28;20057;-66
2021/05/20 11:38:00;;;;;;;2.65;0.10;;;15.50;64.00;;;;;;5039114;28;20496;-66
2021/05/20 11:40:33;;;;;;;1.27;0.20;;;15.50;64.30;;;;;;5030358;28;20040;-66
2021/05/20 11:43:00;;;;;;;0.10;0.10;;;15.60;61.90;;;;;;5031035;28;20041;-67
2021/05/20 11:45:33;;;;;;;0.20;0.20;;;15.60;61.00;;;;;;5028399;28;20041;-66
2021/05/20 11:48:03;;;;;;;0.20;0.15;;;15.70;60.20;;;;;;5028586;28;20056;-66
2021/05/20 11:50:33;;;;;;;3.97;0.65;;;15.80;60.60;;;;;;5027298;28;20483;-66
2021/05/20 11:53:13;;;;;;;3.00;0.20;;;15.90;60.50;;;;;;5027080;28;20034;-67
2021/05/20 11:55:43;;;;;;;0.10;0.10;;;16.00;57.50;;;;;;5035045;28;20037;-67
2021/05/20 11:58:12;;;;;;;2.25;0.20;;;16.10;58.60;;;;;;5037641;28;20580;-67
2021/05/20 12:00:42;;;;;;;0.57;0.10;;;16.20;58.20;;;;;;5038911;28;20504;-66
2021/05/20 12:03:10;;;;;;;0.55;0.10;;;16.30;58.00;;;;;;5030439;28;20751;-67
2021/05/20 12:05:39;;;;;;;0.17;0.10;;;16.30;58.30;;;;;;5042025;28;20040;-66
2021/05/20 12:08:16;;;;;;;0.10;0.10;;;16.40;57.90;;;;;;5038244;28;20029;-67
2021/05/20 12:10:50;;;;;;;0.10;0.10;;;16.50;57.90;;;;;;5035943;28;20571;-67
2021/05/20 12:13:19;;;;;;;0.43;0.10;;;16.60;57.40;;;;;;5034918;28;20041;-67
2021/05/20 12:15:50;;;;;;;0.15;0.10;;;16.70;57.90;;;;;;5038123;28;20071;-67
2021/05/20 12:18:19;;;;;;;0.20;0.10;;;16.70;57.10;;;;;;5035991;28;20036;-67
2021/05/20 12:20:50;;;;;;;0.10;0.10;;;16.80;57.50;;;;;;5039890;28;20037;-66
2021/05/20 12:23:20;;;;;;;0.95;0.22;;;16.80;57.60;;;;;;5037698;28;20053;-66
2021/05/20 12:25:48;;;;;;;0.22;0.15;;;16.90;57.50;;;;;;5043441;28;20033;-67
2021/05/20 12:28:16;;;;;;;0.40;0.10;;;16.90;57.50;;;;;;5035541;28;20045;-66
2021/05/20 12:30:42;;;;;;;0.43;0.20;;;17.00;57.60;;;;;;5039398;28;20526;-68
2021/05/20 12:33:10;;;;;;;5.63;1.00;;;17.10;57.70;;;;;;5036765;28;20041;-67
2021/05/20 12:35:45;;;;;;;0.55;0.10;;;17.20;57.60;;;;;;5030689;28;20132;-67
2021/05/20 12:38:23;;;;;;;0.30;0.20;;;17.30;57.00;;;;;;5036660;28;20119;-67
2021/05/20 12:40:57;;;;;;;6.13;0.20;;;17.40;57.10;;;;;;5032931;28;20033;-66
2021/05/20 12:43:32;;;;;;;0.10;0.10;;;17.50;57.10;;;;;;5034596;28;20107;-67
2021/05/20 12:46:27;;;;;;;0.35;0.22;;;17.60;57.00;;;;;;5043263;28;20072;-67
2021/05/20 12:48:57;;;;;;;0.10;0.10;;;17.70;55.70;;;;;;5031209;28;20052;-66
2021/05/20 12:51:28;;;;;;;0.90;0.20;;;17.70;55.20;;;;;;5033850;28;20025;-67
2021/05/20 12:54:06;;;;;;;0.10;0.10;;;17.80;55.20;;;;;;5037487;28;20040;-67
2021/05/20 12:56:34;;;;;;;0.20;0.10;;;17.80;54.20;;;;;;5034913;28;20071;-67
2021/05/20 12:59:08;;;;;;;0.10;0.10;;;17.80;54.20;;;;;;5033779;28;20041;-67
2021/05/20 13:01:40;;;;;;;0.22;0.10;;;17.80;53.30;;;;;;5033930;28;20153;-67
2021/05/20 13:04:15;;;;;;;0.43;0.20;;;17.80;53.30;;;;;;5035862;28;21073;-68
2021/05/20 13:06:44;;;;;;;0.20;0.10;;;17.80;52.40;;;;;;5036987;28;20048;-68
2021/05/20 13:09:13;;;;;;;0.40;0.20;;;17.80;52.60;;;;;;5035786;28;20052;-68
2021/05/20 13:11:45;;;;;;;0.08;0.08;;;17.80;52.90;;;;;;5032604;28;20034;-68
2021/05/20 13:22:23;;;;;;;0.40;0.10;;;17.60;53.40;;;;;;5036905;28;20349;-68
2021/05/20 13:24:55;;;;;;;0.30;0.10;;;17.50;53.60;;;;;;5035248;28;20042;-67
2021/05/20 13:27:25;;;;;;;1.17;0.80;;;17.50;54.00;;;;;;5036103;28;20032;-67